createdAt,value
2018-03-24T00:00:17.827Z,0
2018-03-24T00:01:17.822Z,0
2018-03-24T00:02:17.800Z,0
2018-03-24T00:03:17.920Z,0
2018-03-24T00:04:17.862Z,0
2018-03-24T00:05:17.911Z,0
2018-03-24T00:06:17.908Z,0
2018-03-24T00:07:17.826Z,0
2018-03-24T00:08:17.886Z,0
2018-03-24T00:09:17.953Z,0
2018-03-24T00:10:17.916Z,0
2018-03-24T00:11:17.804Z,0
2018-03-24T00:12:17.921Z,0
2018-03-24T00:13:17.866Z,0
2018-03-24T00:14:17.828Z,0
2018-03-24T00:15:17.829Z,0
2018-03-24T00:16:17.878Z,0
2018-03-24T00:17:17.930Z,0
2018-03-24T00:18:17.873Z,0
2018-03-24T00:19:17.840Z,0
2018-03-24T00:20:17.922Z,0
2018-03-24T00:21:17.897Z,0
2018-03-24T00:22:17.923Z,0
2018-03-24T00:23:17.839Z,0
2018-03-24T00:24:17.920Z,0
2018-03-24T00:25:17.880Z,0
2018-03-24T00:26:17.877Z,0
2018-03-24T00:27:17.899Z,0
2018-03-24T00:28:17.927Z,0
2018-03-24T00:29:17.875Z,0
2018-03-24T00:30:17.887Z,0
2018-03-24T00:31:17.837Z,0
2018-03-24T00:32:17.851Z,0
2018-03-24T00:33:17.824Z,0
2018-03-24T00:34:17.813Z,0
2018-03-24T00:35:17.929Z,0
2018-03-24T00:36:17.940Z,0
2018-03-24T00:37:17.900Z,0
2018-03-24T00:38:17.910Z,0
2018-03-24T00:39:17.845Z,0
2018-03-24T00:40:17.941Z,0
2018-03-24T00:41:17.944Z,0
2018-03-24T00:42:17.823Z,0
2018-03-24T00:43:17.937Z,0
2018-03-24T00:44:17.833Z,0
2018-03-24T00:45:17.930Z,0
2018-03-24T00:46:17.889Z,0
2018-03-24T00:47:17.939Z,0
2018-03-24T00:48:17.857Z,0
2018-03-24T00:49:17.823Z,0
2018-03-24T00:50:17.826Z,0
2018-03-24T00:51:17.826Z,0
2018-03-24T00:52:17.864Z,0
2018-03-24T00:53:17.922Z,0
2018-03-24T00:54:17.851Z,0
2018-03-24T00:55:17.831Z,0
2018-03-24T00:56:17.895Z,0
2018-03-24T00:57:17.829Z,0
2018-03-24T00:58:17.943Z,0
2018-03-24T00:59:17.897Z,0
2018-03-24T01:00:17.951Z,0
2018-03-24T01:01:17.907Z,0
2018-03-24T01:02:17.929Z,0
2018-03-24T01:03:17.906Z,0
2018-03-24T01:04:17.922Z,0
2018-03-24T01:05:17.928Z,0
2018-03-24T01:06:17.950Z,0
2018-03-24T01:07:17.956Z,0
2018-03-24T01:08:17.903Z,0
2018-03-24T01:09:17.962Z,0
2018-03-24T01:10:17.951Z,0
2018-03-24T01:11:17.931Z,0
2018-03-24T01:12:17.931Z,0
2018-03-24T01:13:17.930Z,0
2018-03-24T01:14:17.848Z,0
2018-03-24T01:15:17.877Z,0
2018-03-24T01:16:17.934Z,0
2018-03-24T01:17:17.936Z,0
2018-03-24T01:18:17.910Z,0
2018-03-24T01:19:17.909Z,0
2018-03-24T01:20:17.916Z,0
2018-03-24T01:21:17.869Z,0
2018-03-24T01:22:17.965Z,0
2018-03-24T01:23:17.854Z,0
2018-03-24T01:24:17.879Z,0
2018-03-24T01:25:17.964Z,0
2018-03-24T01:26:17.965Z,0
2018-03-24T01:27:17.962Z,0
2018-03-24T01:28:17.919Z,0
2018-03-24T01:29:17.858Z,0
2018-03-24T01:30:17.860Z,0
2018-03-24T01:31:17.885Z,0
2018-03-24T01:32:17.966Z,0
2018-03-24T01:33:17.887Z,0
2018-03-24T01:34:17.972Z,0
2018-03-24T01:35:17.941Z,0
2018-03-24T01:36:17.949Z,0
2018-03-24T01:37:17.925Z,0
2018-03-24T01:38:17.914Z,0
2018-03-24T01:39:17.922Z,0
2018-03-24T01:40:17.927Z,0
2018-03-24T01:41:17.983Z,0
2018-03-24T01:42:17.934Z,0
2018-03-24T01:43:17.978Z,0
2018-03-24T01:44:17.886Z,0
2018-03-24T01:45:17.974Z,0
2018-03-24T01:46:17.955Z,0
2018-03-24T01:47:17.970Z,0
2018-03-24T01:48:17.979Z,0
2018-03-24T01:49:18.027Z,0
2018-03-24T01:50:17.862Z,0
2018-03-24T01:51:17.933Z,0
2018-03-24T01:52:17.910Z,0
2018-03-24T01:53:17.978Z,0
2018-03-24T01:54:17.859Z,0
2018-03-24T01:55:17.893Z,0
2018-03-24T01:56:17.933Z,0
2018-03-24T01:57:17.956Z,0
2018-03-24T01:58:17.869Z,0
2018-03-24T01:59:17.929Z,0
2018-03-24T02:00:17.958Z,0
2018-03-24T02:01:17.924Z,0
2018-03-24T02:02:17.989Z,0
2018-03-24T02:03:17.992Z,0
2018-03-24T02:04:17.893Z,0
2018-03-24T02:05:17.981Z,0
2018-03-24T02:06:17.874Z,0
2018-03-24T02:07:17.988Z,0
2018-03-24T02:08:17.944Z,0
2018-03-24T02:09:17.961Z,0
2018-03-24T02:10:17.988Z,0
2018-03-24T02:11:17.968Z,0
2018-03-24T02:12:17.904Z,0
2018-03-24T02:13:17.883Z,0
2018-03-24T02:14:17.914Z,0
2018-03-24T02:15:17.967Z,0
2018-03-24T02:16:17.993Z,0
2018-03-24T02:17:17.996Z,0
2018-03-24T02:18:17.994Z,0
2018-03-24T02:19:17.889Z,0
2018-03-24T02:20:18.002Z,0
2018-03-24T02:21:17.884Z,0
2018-03-24T02:22:17.945Z,0
2018-03-24T02:23:17.949Z,0
2018-03-24T02:24:18.006Z,0
2018-03-24T02:25:17.889Z,0
2018-03-24T02:26:18.005Z,0
2018-03-24T02:27:17.982Z,0
2018-03-24T02:28:17.911Z,0
2018-03-24T02:29:18.006Z,0
2018-03-24T02:30:18.005Z,0
2018-03-24T02:31:18.005Z,0
2018-03-24T02:32:17.894Z,0
2018-03-24T02:33:18.015Z,0
2018-03-24T02:34:18.011Z,0
2018-03-24T02:35:18.002Z,0
2018-03-24T02:36:18.007Z,0
2018-03-24T02:37:18.010Z,0
2018-03-24T02:38:17.898Z,0
2018-03-24T02:39:18.014Z,0
2018-03-24T02:40:17.923Z,0
2018-03-24T02:41:18.017Z,0
2018-03-24T02:42:17.966Z,0
2018-03-24T02:43:17.900Z,0
2018-03-24T02:44:17.901Z,0
2018-03-24T02:45:17.903Z,0
2018-03-24T02:46:17.894Z,0
2018-03-24T02:47:17.962Z,0
2018-03-24T02:48:17.925Z,0
2018-03-24T02:49:17.923Z,0
2018-03-24T02:50:17.925Z,0
2018-03-24T02:51:17.927Z,0
2018-03-24T02:52:17.905Z,0
2018-03-24T02:53:17.929Z,0
2018-03-24T02:54:18.029Z,0
2018-03-24T02:55:17.905Z,0
2018-03-24T02:56:18.015Z,0
2018-03-24T02:57:17.931Z,0
2018-03-24T02:58:17.971Z,0
2018-03-24T02:59:17.906Z,0
2018-03-24T03:00:17.970Z,0
2018-03-24T03:01:17.917Z,0
2018-03-24T03:02:18.022Z,0
2018-03-24T03:03:17.939Z,0
2018-03-24T03:04:18.026Z,0
2018-03-24T03:05:17.916Z,0
2018-03-24T03:06:18.027Z,0
2018-03-24T03:07:18.036Z,0
2018-03-24T03:08:18.004Z,0
2018-03-24T03:09:17.938Z,0
2018-03-24T03:10:17.948Z,0
2018-03-24T03:11:17.941Z,0
2018-03-24T03:12:18.040Z,0
2018-03-24T03:13:18.028Z,0
2018-03-24T03:14:18.029Z,0
2018-03-24T03:15:17.918Z,0
2018-03-24T03:16:18.005Z,0
2018-03-24T03:17:18.032Z,0
2018-03-24T03:18:17.978Z,0
2018-03-24T03:19:18.038Z,0
2018-03-24T03:20:17.917Z,0
2018-03-24T03:21:17.982Z,0
2018-03-24T03:22:18.036Z,0
2018-03-24T03:23:17.983Z,0
2018-03-24T03:24:18.033Z,0
2018-03-24T03:25:17.945Z,0
2018-03-24T03:26:17.945Z,0
2018-03-24T03:27:17.925Z,0
2018-03-24T03:28:17.922Z,0
2018-03-24T03:29:18.048Z,0
2018-03-24T03:30:17.990Z,0
2018-03-24T03:31:18.041Z,0
2018-03-24T03:32:17.925Z,0
2018-03-24T03:33:17.960Z,0
2018-03-24T03:34:18.038Z,0
2018-03-24T03:35:17.931Z,0
2018-03-24T03:36:18.048Z,0
2018-03-24T03:37:17.930Z,0
2018-03-24T03:38:18.043Z,0
2018-03-24T03:39:17.955Z,0
2018-03-24T03:40:17.998Z,0
2018-03-24T03:41:17.966Z,0
2018-03-24T03:42:18.023Z,0
2018-03-24T03:43:18.044Z,0
2018-03-24T03:44:17.995Z,0
2018-03-24T03:45:18.045Z,0
2018-03-24T03:46:17.987Z,0
2018-03-24T03:47:18.023Z,0
2018-03-24T03:48:17.933Z,0
2018-03-24T03:49:18.080Z,0
2018-03-24T03:50:18.000Z,0
2018-03-24T03:51:17.998Z,0
2018-03-24T03:52:17.962Z,0
2018-03-24T03:53:18.046Z,0
2018-03-24T03:54:18.010Z,0
2018-03-24T03:55:17.934Z,0
2018-03-24T03:56:18.006Z,0
2018-03-24T03:57:18.001Z,0
2018-03-24T03:58:18.011Z,0
2018-03-24T03:59:18.054Z,0
2018-03-24T04:00:18.009Z,0
2018-03-24T04:01:18.055Z,0
2018-03-24T04:02:17.970Z,0
2018-03-24T04:03:17.943Z,0
2018-03-24T04:04:17.978Z,0
2018-03-24T04:05:18.013Z,0
2018-03-24T04:06:18.062Z,0
2018-03-24T04:07:18.010Z,0
2018-03-24T04:08:17.948Z,0
2018-03-24T04:09:17.951Z,0
2018-03-24T04:10:17.971Z,0
2018-03-24T04:11:17.984Z,0
2018-03-24T04:12:18.016Z,0
2018-03-24T04:13:18.068Z,0
2018-03-24T04:14:18.009Z,0
2018-03-24T04:15:18.072Z,0
2018-03-24T04:16:18.039Z,0
2018-03-24T04:17:17.962Z,0
2018-03-24T04:18:17.984Z,0
2018-03-24T04:19:18.040Z,0
2018-03-24T04:20:18.065Z,0
2018-03-24T04:21:17.984Z,0
2018-03-24T04:22:17.982Z,0
2018-03-24T04:23:17.956Z,0
2018-03-24T04:24:17.959Z,0
2018-03-24T04:25:17.984Z,0
2018-03-24T04:26:17.957Z,0
2018-03-24T04:27:18.071Z,0
2018-03-24T04:28:17.963Z,0
2018-03-24T04:29:17.951Z,0
2018-03-24T04:30:18.021Z,0
2018-03-24T04:31:18.053Z,0
2018-03-24T04:32:18.030Z,0
2018-03-24T04:33:17.991Z,0
2018-03-24T04:34:17.995Z,0
2018-03-24T04:35:18.032Z,0
2018-03-24T04:36:17.992Z,0
2018-03-24T04:37:17.960Z,0
2018-03-24T04:38:18.076Z,0
2018-03-24T04:39:17.997Z,0
2018-03-24T04:40:18.083Z,0
2018-03-24T04:41:18.087Z,0
2018-03-24T04:42:17.988Z,0
2018-03-24T04:43:18.085Z,0
2018-03-24T04:44:18.042Z,0
2018-03-24T04:45:17.964Z,4
2018-03-24T04:46:18.047Z,4
2018-03-24T04:47:18.082Z,4
2018-03-24T04:48:18.076Z,0
2018-03-24T04:49:17.971Z,4
2018-03-24T04:50:18.042Z,4
2018-03-24T04:51:18.090Z,8
2018-03-24T04:52:18.087Z,4
2018-03-24T04:53:18.083Z,8
2018-03-24T04:54:18.062Z,8
2018-03-24T04:55:18.096Z,12
2018-03-24T04:56:18.067Z,16
2018-03-24T04:57:18.084Z,16
2018-03-24T04:58:18.048Z,20
2018-03-24T04:59:18.050Z,24
2018-03-24T05:00:18.016Z,24
2018-03-24T05:01:18.043Z,36
2018-03-24T05:02:17.977Z,40
2018-03-24T05:03:18.008Z,44
2018-03-24T05:04:18.052Z,52
2018-03-24T05:05:18.096Z,60
2018-03-24T05:06:18.097Z,76
2018-03-24T05:07:18.054Z,88
2018-03-24T05:08:18.105Z,104
2018-03-24T05:09:18.053Z,116
2018-03-24T05:10:18.097Z,132
2018-03-24T05:11:17.982Z,148
2018-03-24T05:12:18.071Z,168
2018-03-24T05:13:18.106Z,188
2018-03-24T05:14:18.105Z,212
2018-03-24T05:15:18.107Z,232
2018-03-24T05:16:17.989Z,252
2018-03-24T05:17:18.104Z,280
2018-03-24T05:18:17.991Z,320
2018-03-24T05:19:18.081Z,360
2018-03-24T05:20:18.062Z,396
2018-03-24T05:21:18.027Z,436
2018-03-24T05:22:18.111Z,480
2018-03-24T05:23:18.122Z,528
2018-03-24T05:24:17.998Z,576
2018-03-24T05:25:18.109Z,636
2018-03-24T05:26:18.162Z,696
2018-03-24T05:27:18.104Z,760
2018-03-24T05:28:18.022Z,816
2018-03-24T05:29:18.110Z,880
2018-03-24T05:30:18.111Z,948
2018-03-24T05:31:18.067Z,1032
2018-03-24T05:32:18.027Z,1116
2018-03-24T05:33:18.026Z,1212
2018-03-24T05:34:18.021Z,1292
2018-03-24T05:35:18.121Z,1380
2018-03-24T05:36:18.023Z,1468
2018-03-24T05:37:18.063Z,1568
2018-03-24T05:38:18.005Z,1660
2018-03-24T05:39:18.021Z,1752
2018-03-24T05:40:18.119Z,1844
2018-03-24T05:41:18.026Z,1936
2018-03-24T05:42:18.116Z,1988
2018-03-24T05:43:18.116Z,2016
2018-03-24T05:44:18.114Z,2064
2018-03-24T05:45:18.120Z,2160
2018-03-24T05:46:18.058Z,2284
2018-03-24T05:47:18.098Z,2392
2018-03-24T05:48:18.013Z,2484
2018-03-24T05:49:18.071Z,2568
2018-03-24T05:50:18.005Z,2704
2018-03-24T05:51:18.040Z,2888
2018-03-24T05:52:18.100Z,2988
2018-03-24T05:53:18.100Z,3008
2018-03-24T05:54:18.105Z,3104
2018-03-24T05:55:18.105Z,3244
2018-03-24T05:56:18.073Z,3284
2018-03-24T05:57:18.078Z,3236
2018-03-24T05:58:18.069Z,3184
2018-03-24T05:59:18.083Z,3208
2018-03-24T06:00:18.097Z,3308
2018-03-24T06:01:18.127Z,3452
2018-03-24T06:02:18.045Z,3652
2018-03-24T06:03:18.038Z,3820
2018-03-24T06:04:18.122Z,3940
2018-03-24T06:05:18.126Z,4052
2018-03-24T06:06:18.079Z,4180
2018-03-24T06:07:18.131Z,4324
2018-03-24T06:08:18.109Z,4456
2018-03-24T06:09:18.135Z,4564
2018-03-24T06:10:18.074Z,4604
2018-03-24T06:11:18.017Z,4624
2018-03-24T06:12:18.086Z,4700
2018-03-24T06:13:18.139Z,4892
2018-03-24T06:14:18.085Z,5168
2018-03-24T06:15:18.092Z,5524
2018-03-24T06:16:18.054Z,5888
2018-03-24T06:17:18.078Z,6212
2018-03-24T06:18:18.141Z,6416
2018-03-24T06:19:18.145Z,6640
2018-03-24T06:20:18.023Z,6928
2018-03-24T06:21:18.058Z,7132
2018-03-24T06:22:18.032Z,7248
2018-03-24T06:23:18.053Z,7432
2018-03-24T06:24:18.141Z,7544
2018-03-24T06:25:18.118Z,7596
2018-03-24T06:26:18.148Z,7724
2018-03-24T06:27:18.091Z,7896
2018-03-24T06:28:18.036Z,8060
2018-03-24T06:29:18.143Z,8228
2018-03-24T06:30:18.114Z,8376
2018-03-24T06:31:18.028Z,8512
2018-03-24T06:32:18.061Z,8624
2018-03-24T06:33:18.067Z,8636
2018-03-24T06:34:18.123Z,8656
2018-03-24T06:35:18.096Z,8712
2018-03-24T06:36:18.158Z,8816
2018-03-24T06:37:18.092Z,8940
2018-03-24T06:38:18.195Z,9060
2018-03-24T06:39:18.148Z,9136
2018-03-24T06:40:18.034Z,9156
2018-03-24T06:41:18.061Z,9204
2018-03-24T06:42:18.150Z,9268
2018-03-24T06:43:18.194Z,9312
2018-03-24T06:44:18.101Z,9392
2018-03-24T06:45:18.112Z,9464
2018-03-24T06:46:18.149Z,9452
2018-03-24T06:47:18.071Z,9420
2018-03-24T06:48:18.129Z,9400
2018-03-24T06:49:18.085Z,9336
2018-03-24T06:50:18.045Z,9348
2018-03-24T06:51:18.053Z,9304
2018-03-24T06:52:18.154Z,9172
2018-03-24T06:53:18.037Z,9104
2018-03-24T06:54:18.073Z,9212
2018-03-24T06:55:18.054Z,9308
2018-03-24T06:56:18.168Z,9388
2018-03-24T06:57:18.068Z,9564
2018-03-24T06:58:18.045Z,9668
2018-03-24T06:59:18.078Z,9692
2018-03-24T07:00:18.041Z,9832
2018-03-24T07:01:18.193Z,10076
2018-03-24T07:02:18.072Z,10360
2018-03-24T07:03:18.112Z,10680
2018-03-24T07:04:18.136Z,11128
2018-03-24T07:05:18.082Z,11740
2018-03-24T07:06:18.163Z,12352
2018-03-24T07:07:18.081Z,12852
2018-03-24T07:08:18.141Z,13308
2018-03-24T07:09:18.081Z,13692
2018-03-24T07:10:18.113Z,13920
2018-03-24T07:11:18.063Z,14044
2018-03-24T07:12:18.124Z,14400
2018-03-24T07:13:18.170Z,15100
2018-03-24T07:14:18.175Z,15932
2018-03-24T07:15:18.129Z,16468
2018-03-24T07:16:18.170Z,16956
2018-03-24T07:17:18.146Z,17348
2018-03-24T07:18:18.151Z,17796
2018-03-24T07:19:18.156Z,18472
2018-03-24T07:20:18.060Z,19392
2018-03-24T07:21:18.096Z,20416
2018-03-24T07:22:18.180Z,21632
2018-03-24T07:23:18.090Z,22432
2018-03-24T07:24:18.178Z,22976
2018-03-24T07:25:18.185Z,23296
2018-03-24T07:26:18.176Z,23488
2018-03-24T07:27:18.176Z,23648
2018-03-24T07:28:18.072Z,24000
2018-03-24T07:29:18.089Z,24288
2018-03-24T07:30:18.134Z,24480
2018-03-24T07:31:18.112Z,24704
2018-03-24T07:32:18.130Z,25120
2018-03-24T07:33:18.187Z,25664
2018-03-24T07:34:18.143Z,26272
2018-03-24T07:35:18.188Z,26816
2018-03-24T07:36:18.194Z,27168
2018-03-24T07:37:18.069Z,27424
2018-03-24T07:38:18.186Z,27648
2018-03-24T07:39:18.163Z,27744
2018-03-24T07:40:18.071Z,27840
2018-03-24T07:41:18.185Z,27904
2018-03-24T07:42:18.141Z,27872
2018-03-24T07:43:18.134Z,27776
2018-03-24T07:44:18.147Z,27520
2018-03-24T07:45:18.074Z,27232
2018-03-24T07:46:18.145Z,26880
2018-03-24T07:47:18.074Z,26656
2018-03-24T07:48:18.161Z,26560
2018-03-24T07:49:18.199Z,26528
2018-03-24T07:50:18.133Z,26720
2018-03-24T07:51:18.087Z,27040
2018-03-24T07:52:18.169Z,27648
2018-03-24T07:53:18.077Z,28224
2018-03-24T07:54:18.103Z,28512
2018-03-24T07:55:18.198Z,28512
2018-03-24T07:56:18.202Z,28544
2018-03-24T07:57:18.109Z,28672
2018-03-24T07:58:18.160Z,29088
2018-03-24T07:59:18.203Z,29696
2018-03-24T08:00:18.148Z,30496
2018-03-24T08:01:18.108Z,31456
2018-03-24T08:02:18.174Z,32448
2018-03-24T08:03:18.198Z,33248
2018-03-24T08:04:18.151Z,33920
2018-03-24T08:05:18.084Z,34560
2018-03-24T08:06:18.083Z,35392
2018-03-24T08:07:18.143Z,35968
2018-03-24T08:08:18.202Z,36544
2018-03-24T08:09:18.153Z,36992
2018-03-24T08:10:18.209Z,37632
2018-03-24T08:11:18.123Z,38432
2018-03-24T08:12:18.152Z,39232
2018-03-24T08:13:18.161Z,39744
2018-03-24T08:14:18.210Z,40160
2018-03-24T08:15:18.159Z,40352
2018-03-24T08:16:18.216Z,40544
2018-03-24T08:17:18.119Z,40672
2018-03-24T08:18:18.210Z,40864
2018-03-24T08:19:18.129Z,41056
2018-03-24T08:20:18.126Z,41216
2018-03-24T08:21:18.219Z,41184
2018-03-24T08:22:18.128Z,41120
2018-03-24T08:23:18.157Z,40960
2018-03-24T08:24:18.212Z,40768
2018-03-24T08:25:18.217Z,40512
2018-03-24T08:26:18.128Z,40256
2018-03-24T08:27:18.099Z,40064
2018-03-24T08:28:18.217Z,40128
2018-03-24T08:29:18.098Z,40384
2018-03-24T08:30:18.098Z,41344
2018-03-24T08:31:18.163Z,42272
2018-03-24T08:32:18.190Z,43104
2018-03-24T08:33:18.216Z,43904
2018-03-24T08:34:18.134Z,44832
2018-03-24T08:35:18.135Z,45600
2018-03-24T08:36:18.174Z,46080
2018-03-24T08:37:18.178Z,46560
2018-03-24T08:38:18.143Z,46880
2018-03-24T08:39:18.152Z,47104
2018-03-24T08:40:18.142Z,46720
2018-03-24T08:41:18.203Z,46848
2018-03-24T08:42:18.119Z,46912
2018-03-24T08:43:18.222Z,47072
2018-03-24T08:44:18.223Z,47360
2018-03-24T08:45:18.108Z,47200
2018-03-24T08:46:18.205Z,47904
2018-03-24T08:47:18.202Z,48288
2018-03-24T08:48:18.136Z,48256
2018-03-24T08:49:18.125Z,48128
2018-03-24T08:50:18.122Z,48032
2018-03-24T08:51:18.127Z,47552
2018-03-24T08:52:18.128Z,46944
2018-03-24T08:53:18.206Z,46304
2018-03-24T08:54:18.211Z,45824
2018-03-24T08:55:18.206Z,45760
2018-03-24T08:56:18.177Z,45728
2018-03-24T08:57:18.190Z,45920
2018-03-24T08:58:18.183Z,46400
2018-03-24T08:59:18.209Z,47008
2018-03-24T09:00:18.235Z,47520
2018-03-24T09:01:18.125Z,47328
2018-03-24T09:02:18.184Z,47296
2018-03-24T09:03:18.232Z,46944
2018-03-24T09:04:18.187Z,47200
2018-03-24T09:05:18.151Z,48128
2018-03-24T09:06:18.184Z,49600
2018-03-24T09:07:18.156Z,51744
2018-03-24T09:08:18.268Z,54112
2018-03-24T09:09:18.210Z,56000
2018-03-24T09:10:18.126Z,57728
2018-03-24T09:11:18.181Z,58848
2018-03-24T09:12:18.127Z,59584
2018-03-24T09:13:18.246Z,61472
2018-03-24T09:14:18.219Z,64512
2018-03-24T09:15:18.221Z,67264
2018-03-24T09:16:18.244Z,71328
2018-03-24T09:17:18.228Z,73888
2018-03-24T09:18:18.252Z,72800
2018-03-24T09:19:18.205Z,73344
2018-03-24T09:20:18.241Z,74112
2018-03-24T09:21:18.130Z,74048
2018-03-24T09:22:18.281Z,73120
2018-03-24T09:23:18.200Z,74016
2018-03-24T09:24:18.199Z,75680
2018-03-24T09:25:18.199Z,79168
2018-03-24T09:26:18.257Z,81440
2018-03-24T09:27:18.168Z,85568
2018-03-24T09:28:18.134Z,106016
2018-03-24T09:29:18.145Z,89152
2018-03-24T09:30:18.147Z,83200
2018-03-24T09:31:18.214Z,82624
2018-03-24T09:32:18.165Z,83200
2018-03-24T09:33:18.234Z,82080
2018-03-24T09:34:18.261Z,82240
2018-03-24T09:35:18.230Z,81536
2018-03-24T09:36:18.237Z,81248
2018-03-24T09:37:18.206Z,82144
2018-03-24T09:38:18.207Z,84864
2018-03-24T09:39:18.262Z,89440
2018-03-24T09:40:18.204Z,107136
2018-03-24T09:41:18.260Z,83456
2018-03-24T09:42:18.264Z,91968
2018-03-24T09:43:18.239Z,85280
2018-03-24T09:44:18.189Z,101728
2018-03-24T09:45:18.262Z,95616
2018-03-24T09:46:18.173Z,79648
2018-03-24T09:47:18.220Z,95552
2018-03-24T09:48:18.183Z,95360
2018-03-24T09:49:18.219Z,69408
2018-03-24T09:50:18.176Z,63488
2018-03-24T09:51:18.222Z,57184
2018-03-24T09:52:18.160Z,54848
2018-03-24T09:53:18.244Z,53216
2018-03-24T09:54:18.265Z,53536
2018-03-24T09:55:18.245Z,53024
2018-03-24T09:56:18.275Z,50240
2018-03-24T09:57:18.268Z,48480
2018-03-24T09:58:18.220Z,47360
2018-03-24T09:59:18.322Z,46848
2018-03-24T10:00:18.153Z,46176
2018-03-24T10:01:18.218Z,45312
2018-03-24T10:02:18.193Z,44768
2018-03-24T10:03:18.160Z,44448
2018-03-24T10:04:18.220Z,45056
2018-03-24T10:05:18.285Z,45984
2018-03-24T10:06:18.224Z,47328
2018-03-24T10:07:18.256Z,48640
2018-03-24T10:08:18.278Z,49248
2018-03-24T10:09:18.276Z,49216
2018-03-24T10:10:18.305Z,48160
2018-03-24T10:11:18.234Z,46848
2018-03-24T10:12:18.174Z,45568
2018-03-24T10:13:18.223Z,44544
2018-03-24T10:14:18.194Z,44064
2018-03-24T10:15:18.195Z,43584
2018-03-24T10:16:18.258Z,43392
2018-03-24T10:17:18.222Z,43584
2018-03-24T10:18:18.198Z,44000
2018-03-24T10:19:18.244Z,44672
2018-03-24T10:20:18.239Z,45920
2018-03-24T10:21:18.200Z,48448
2018-03-24T10:22:18.202Z,51360
2018-03-24T10:23:18.302Z,52928
2018-03-24T10:24:18.177Z,53984
2018-03-24T10:25:18.241Z,53856
2018-03-24T10:26:18.182Z,53120
2018-03-24T10:27:18.269Z,52512
2018-03-24T10:28:18.187Z,52128
2018-03-24T10:29:18.266Z,52192
2018-03-24T10:30:18.177Z,52544
2018-03-24T10:31:18.218Z,52960
2018-03-24T10:32:18.184Z,53568
2018-03-24T10:33:18.241Z,55008
2018-03-24T10:34:18.205Z,57696
2018-03-24T10:35:18.177Z,64320
2018-03-24T10:36:18.294Z,61088
2018-03-24T10:37:18.301Z,59904
2018-03-24T10:38:18.242Z,59136
2018-03-24T10:39:18.241Z,57824
2018-03-24T10:40:18.303Z,56512
2018-03-24T10:41:18.301Z,55456
2018-03-24T10:42:18.252Z,54496
2018-03-24T10:43:18.179Z,53792
2018-03-24T10:44:18.301Z,53536
2018-03-24T10:45:18.183Z,53440
2018-03-24T10:46:18.248Z,53248
2018-03-24T10:47:18.279Z,52640
2018-03-24T10:48:18.186Z,51648
2018-03-24T10:49:18.277Z,50496
2018-03-24T10:50:18.299Z,49376
2018-03-24T10:51:18.284Z,48288
2018-03-24T10:52:18.249Z,47008
2018-03-24T10:53:18.302Z,45376
2018-03-24T10:54:18.222Z,43520
2018-03-24T10:55:18.305Z,42016
2018-03-24T10:56:18.311Z,41536
2018-03-24T10:57:18.194Z,41312
2018-03-24T10:58:18.305Z,41120
2018-03-24T10:59:18.192Z,40896
2018-03-24T11:00:18.286Z,40608
2018-03-24T11:01:18.312Z,40128
2018-03-24T11:02:18.281Z,39456
2018-03-24T11:03:18.237Z,38816
2018-03-24T11:04:18.291Z,38304
2018-03-24T11:05:18.317Z,38016
2018-03-24T11:06:18.225Z,38080
2018-03-24T11:07:18.316Z,38368
2018-03-24T11:08:18.208Z,38880
2018-03-24T11:09:18.200Z,39648
2018-03-24T11:10:18.198Z,40576
2018-03-24T11:11:18.272Z,41472
2018-03-24T11:12:18.285Z,42720
2018-03-24T11:13:18.315Z,44000
2018-03-24T11:14:18.233Z,45376
2018-03-24T11:15:18.296Z,46656
2018-03-24T11:16:18.263Z,47744
2018-03-24T11:17:18.297Z,48160
2018-03-24T11:18:18.297Z,48064
2018-03-24T11:19:18.270Z,47776
2018-03-24T11:20:18.295Z,47680
2018-03-24T11:21:18.202Z,47616
2018-03-24T11:22:18.319Z,47520
2018-03-24T11:23:18.240Z,47488
2018-03-24T11:24:18.222Z,47104
2018-03-24T11:25:18.218Z,46496
2018-03-24T11:26:18.322Z,46176
2018-03-24T11:27:18.240Z,46080
2018-03-24T11:28:18.285Z,45984
2018-03-24T11:29:18.299Z,45888
2018-03-24T11:30:18.241Z,45792
2018-03-24T11:31:18.330Z,45728
2018-03-24T11:32:18.240Z,46368
2018-03-24T11:33:18.330Z,49728
2018-03-24T11:34:18.327Z,55456
2018-03-24T11:35:18.246Z,84864
2018-03-24T11:36:18.225Z,58304
2018-03-24T11:37:18.338Z,64800
2018-03-24T11:38:18.330Z,66016
2018-03-24T11:39:18.331Z,116608
2018-03-24T11:40:18.278Z,122336
2018-03-24T11:41:18.227Z,63424
2018-03-24T11:42:18.336Z,59904
2018-03-24T11:43:18.220Z,62624
2018-03-24T11:44:18.308Z,60064
2018-03-24T11:45:18.339Z,58784
2018-03-24T11:46:18.309Z,57536
2018-03-24T11:47:18.308Z,56704
2018-03-24T11:48:18.285Z,56032
2018-03-24T11:49:18.340Z,55680
2018-03-24T11:50:18.296Z,55360
2018-03-24T11:51:18.227Z,55456
2018-03-24T11:52:18.315Z,55328
2018-03-24T11:53:18.316Z,55168
2018-03-24T11:54:18.291Z,55040
2018-03-24T11:55:18.344Z,56576
2018-03-24T11:56:18.339Z,56416
2018-03-24T11:57:18.294Z,54496
2018-03-24T11:58:18.343Z,50880
2018-03-24T11:59:18.234Z,48448
2018-03-24T12:00:18.243Z,46528
2018-03-24T12:01:18.301Z,44352
2018-03-24T12:02:18.291Z,42464
2018-03-24T12:03:18.378Z,40256
2018-03-24T12:04:18.349Z,38784
2018-03-24T12:05:18.258Z,37760
2018-03-24T12:06:18.264Z,37216
2018-03-24T12:07:18.232Z,37088
2018-03-24T12:08:18.379Z,37472
2018-03-24T12:09:18.309Z,38496
2018-03-24T12:10:18.241Z,40160
2018-03-24T12:11:18.296Z,42240
2018-03-24T12:12:18.305Z,44384
2018-03-24T12:13:18.247Z,46048
2018-03-24T12:14:18.297Z,47264
2018-03-24T12:15:18.301Z,48224
2018-03-24T12:16:18.365Z,48832
2018-03-24T12:17:18.333Z,49280
2018-03-24T12:18:18.336Z,49824
2018-03-24T12:19:18.333Z,51040
2018-03-24T12:20:18.305Z,53152
2018-03-24T12:21:18.241Z,55456
2018-03-24T12:22:18.333Z,58592
2018-03-24T12:23:18.342Z,58688
2018-03-24T12:24:18.301Z,61056
2018-03-24T12:25:18.335Z,64288
2018-03-24T12:26:18.310Z,79136
2018-03-24T12:27:18.278Z,59616
2018-03-24T12:28:18.340Z,54016
2018-03-24T12:29:18.271Z,50112
2018-03-24T12:30:18.255Z,46976
2018-03-24T12:31:18.372Z,44736
2018-03-24T12:32:18.364Z,43232
2018-03-24T12:33:18.258Z,42432
2018-03-24T12:34:18.257Z,42336
2018-03-24T12:35:18.317Z,42848
2018-03-24T12:36:18.319Z,43584
2018-03-24T12:37:18.370Z,44288
2018-03-24T12:38:18.326Z,44896
2018-03-24T12:39:18.298Z,45824
2018-03-24T12:40:18.289Z,48320
2018-03-24T12:41:18.377Z,73280
2018-03-24T12:42:18.348Z,59296
2018-03-24T12:43:18.262Z,56064
2018-03-24T12:44:18.280Z,51648
2018-03-24T12:45:18.312Z,50208
2018-03-24T12:46:18.265Z,54208
2018-03-24T12:47:18.292Z,48672
2018-03-24T12:48:18.349Z,46976
2018-03-24T12:49:18.264Z,46144
2018-03-24T12:50:18.258Z,46048
2018-03-24T12:51:18.357Z,46944
2018-03-24T12:52:18.258Z,47392
2018-03-24T12:53:18.371Z,46848
2018-03-24T12:54:18.340Z,48832
2018-03-24T12:55:18.269Z,85440
2018-03-24T12:56:18.358Z,99776
2018-03-24T12:57:18.383Z,56192
2018-03-24T12:58:18.341Z,56416
2018-03-24T12:59:18.297Z,55808
2018-03-24T13:00:18.378Z,54688
2018-03-24T13:01:18.385Z,56704
2018-03-24T13:02:18.264Z,93696
2018-03-24T13:03:18.324Z,54944
2018-03-24T13:04:18.387Z,54560
2018-03-24T13:05:18.341Z,68512
2018-03-24T13:06:18.301Z,54848
2018-03-24T13:07:18.388Z,55136
2018-03-24T13:08:18.341Z,57792
2018-03-24T13:09:18.358Z,96704
2018-03-24T13:10:18.389Z,56736
2018-03-24T13:11:18.389Z,59264
2018-03-24T13:12:18.337Z,63808
2018-03-24T13:13:18.405Z,57056
2018-03-24T13:14:18.364Z,54592
2018-03-24T13:15:18.388Z,53440
2018-03-24T13:16:18.394Z,51936
2018-03-24T13:17:18.273Z,50592
2018-03-24T13:18:18.347Z,49696
2018-03-24T13:19:18.362Z,48992
2018-03-24T13:20:18.369Z,48480
2018-03-24T13:21:18.303Z,48096
2018-03-24T13:22:18.278Z,48256
2018-03-24T13:23:18.344Z,48800
2018-03-24T13:24:18.393Z,49728
2018-03-24T13:25:18.352Z,50688
2018-03-24T13:26:18.305Z,51296
2018-03-24T13:27:18.405Z,51552
2018-03-24T13:28:18.373Z,50368
2018-03-24T13:29:18.402Z,49376
2018-03-24T13:30:18.277Z,48576
2018-03-24T13:31:18.398Z,48032
2018-03-24T13:32:18.359Z,47968
2018-03-24T13:33:18.319Z,48032
2018-03-24T13:34:18.322Z,48352
2018-03-24T13:35:18.371Z,47008
2018-03-24T13:36:18.285Z,45952